Time;durP1;ratioP1;P1;durP2;ratioP2;P2;SDS_P1;SDS_P2;PMS_P1;PMS_P2;Temp;Humidity;BMP_temperature;BMP_pressure;BME280_temperature;BME280_humidity;BME280_pressure;Samples;Min_cycle;Max_cycle;Signal;HPM_P1;HPM_P2
2023/02/18 00:01:16;;;;;;;1.30;1.10;;;;;;;13.84;54.57;100135.66;4347963;32;33212;-86
2023/02/18 00:03:44;;;;;;;0.05;0.05;;;;;;;13.95;54.19;100141.25;4340795;33;34894;-86
2023/02/18 00:06:25;;;;;;;1.50;0.80;;;;;;;13.97;54.40;100136.75;4339775;33;32834;-87
2023/02/18 00:09:03;;;;;;;0.68;0.68;;;;;;;13.82;54.83;100148.16;4349380;32;33354;-86
2023/02/18 00:11:42;;;;;;;0.55;0.55;;;;;;;14.15;54.08;100136.69;4338520;33;33465;-86
2023/02/18 00:14:30;;;;;;;1.10;1.10;;;;;;;14.27;53.65;100138.72;4348042;32;35080;-86
2023/02/18 00:17:52;;;;;;;0.95;0.60;;;;;;;14.02;54.14;100153.28;4331107;32;33646;-86
2023/02/18 00:20:20;;;;;;;;;;;;;;;13.89;54.88;100127.47;4342991;33;34220;-86
2023/02/18 00:22:48;;;;;;;3.30;1.25;;;;;;;14.26;54.09;100129.03;4326356;32;33721;-85
2023/02/18 00:25:16;;;;;;;4.28;1.48;;;;;;;14.41;53.41;100120.22;4342209;32;33419;-85
2023/02/18 00:27:45;;;;;;;0.82;0.82;;;;;;;14.18;54.21;100125.91;4341522;33;33769;-85
2023/02/18 00:30:13;;;;;;;1.23;1.15;;;;;;;14.36;53.86;100111.66;4339502;33;33798;-85
2023/02/18 00:32:40;;;;;;;0.75;0.75;;;;;;;14.10;54.73;100118.37;4330420;33;33369;-86
2023/02/18 00:35:10;;;;;;;1.85;1.37;;;;;;;14.27;54.20;100114.81;4339873;33;32679;-85
2023/02/18 00:37:38;;;;;;;0.50;0.50;;;;;;;14.43;53.87;100123.69;4339541;33;35999;-85
2023/02/18 00:40:07;;;;;;;1.48;1.25;;;;;;;14.49;53.92;100118.06;4341036;33;34250;-86
2023/02/18 00:42:35;;;;;;;0.52;0.52;;;;;;;14.25;54.80;100116.69;4338538;33;33442;-85
2023/02/18 00:45:03;;;;;;;0.68;0.60;;;;;;;14.63;53.70;100108.47;4347517;33;33432;-84
2023/02/18 00:47:30;;;;;;;2.47;0.40;;;;;;;14.68;53.55;100096.62;4328231;33;33272;-85
2023/02/18 00:50:00;;;;;;;0.47;0.37;;;;;;;14.39;54.37;100106.19;4341357;33;34709;-85
2023/02/18 00:52:27;;;;;;;0.80;0.80;;;;;;;14.83;53.30;100102.88;4338767;33;33475;-85
2023/02/18 00:54:55;;;;;;;0.05;0.05;;;;;;;14.44;54.23;100106.78;4337988;33;32801;-85
2023/02/18 00:57:22;;;;;;;0.37;0.37;;;;;;;14.66;53.79;100100.31;4336758;33;33655;-84
2023/02/18 00:59:50;;;;;;;0.65;0.35;;;;;;;14.60;53.93;100105.03;4342310;32;34388;-83
2023/02/18 01:02:17;;;;;;;0.40;0.40;;;;;;;14.53;54.03;100098.34;4338944;33;33658;-84
2023/02/18 01:04:52;;;;;;;1.50;0.30;;;;;;;14.84;53.42;100096.62;4342985;32;33564;-84
2023/02/18 01:07:19;;;;;;;2.70;1.23;;;;;;;15.18;52.30;100089.38;4339197;33;34319;-84
2023/02/18 01:09:48;;;;;;;0.35;0.35;;;;;;;14.56;53.67;100090.19;4343592;33;34029;-83
2023/02/18 01:12:15;;;;;;;0.55;0.52;;;;;;;14.43;54.08;100089.13;4331103;33;33777;-83
2023/02/18 01:14:43;;;;;;;2.42;0.93;;;;;;;14.62;53.83;100091.63;4341396;33;31885;-83
2023/02/18 01:17:11;;;;;;;0.60;0.60;;;;;;;15.00;52.40;100076.19;4341055;33;33847;-83
2023/02/18 01:19:39;;;;;;;0.20;0.20;;;;;;;14.92;52.71;100082.91;4340205;33;33757;-83
2023/02/18 01:22:07;;;;;;;1.40;1.17;;;;;;;14.97;52.32;100081.69;4343147;33;33367;-83
2023/02/18 01:24:37;;;;;;;0.28;0.28;;;;;;;14.98;52.17;100078.06;4339952;33;32400;-84
2023/02/18 01:27:05;;;;;;;0.22;0.22;;;;;;;15.18;51.61;100076.06;4342004;32;34663;-84
2023/02/18 01:29:33;;;;;;;2.80;1.23;;;;;;;15.16;51.57;100070.00;4339538;32;32478;-84
2023/02/18 01:32:02;;;;;;;0.57;0.45;;;;;;;15.04;51.77;100076.84;4351438;32;33325;-85
2023/02/18 01:34:30;;;;;;;0.20;0.20;;;;;;;14.89;51.99;100075.94;4339147;32;33145;-85
2023/02/18 01:36:58;;;;;;;1.15;0.88;;;;;;;14.81;52.29;100067.53;4341912;33;33535;-85
2023/02/18 01:39:26;;;;;;;0.98;0.75;;;;;;;15.32;50.94;100060.16;4339331;33;34167;-83
2023/02/18 01:41:53;;;;;;;0.32;0.30;;;;;;;15.23;51.15;100056.22;4351506;32;33111;-83
2023/02/18 01:44:26;;;;;;;0.75;0.30;;;;;;;15.36;50.77;100057.22;4341307;33;32292;-83
2023/02/18 01:46:54;;;;;;;0.28;0.25;;;;;;;15.06;51.58;100062.53;4339891;33;33918;-83
2023/02/18 01:49:32;;;;;;;0.13;0.13;;;;;;;14.89;52.02;100057.34;4347623;33;33700;-83
2023/02/18 01:52:10;;;;;;;0.90;0.28;;;;;;;14.65;52.71;100053.41;4341643;33;33576;-83
2023/02/18 01:54:40;;;;;;;0.17;0.17;;;;;;;14.65;53.07;100042.78;4327520;33;32721;-83
2023/02/18 01:57:15;;;;;;;0.00;0.00;;;;;;;14.94;52.31;100047.28;4327759;33;33053;-83
2023/02/18 01:59:56;;;;;;;0.15;0.13;;;;;;;15.46;51.04;100038.03;4340730;33;34167;-83
2023/02/18 02:02:27;;;;;;;0.00;0.00;;;;;;;15.36;51.21;100051.91;4340265;33;33233;-83
2023/02/18 02:04:55;;;;;;;0.08;0.08;;;;;;;14.93;52.47;100053.56;4338690;33;33017;-83
2023/02/18 02:07:24;;;;;;;0.47;0.47;;;;;;;15.11;52.17;100057.81;4350700;32;33489;-83
2023/02/18 02:09:56;;;;;;;0.00;0.00;;;;;;;15.21;51.83;100051.97;4346135;32;34490;-83
2023/02/18 02:12:39;;;;;;;0.00;0.00;;;;;;;15.41;51.43;100054.28;4333286;33;34018;-83
2023/02/18 02:15:28;;;;;;;0.10;0.10;;;;;;;15.48;50.96;100050.31;4341306;33;32840;-83
2023/02/18 02:18:00;;;;;;;0.00;0.00;;;;;;;15.42;50.80;100050.66;4352653;32;33429;-83
2023/02/18 02:20:43;;;;;;;0.00;0.00;;;;;;;15.77;49.94;100055.72;4345967;33;33187;-85
2023/02/18 02:23:36;;;;;;;0.00;0.00;;;;;;;15.44;50.31;100054.13;4351438;32;32969;-85
2023/02/18 02:26:10;;;;;;;;;;;;;;;15.57;50.63;100049.78;4341562;33;33169;-85
2023/02/18 02:28:54;;;;;;;0.00;0.00;;;;;;;15.92;49.50;100048.59;4347169;33;34157;-85
2023/02/18 02:31:43;;;;;;;0.00;0.00;;;;;;;15.79;49.67;100048.47;4350521;32;34889;-85
2023/02/18 02:34:45;;;;;;;2.80;0.80;;;;;;;15.68;49.97;100040.31;4339592;32;33061;-85
2023/02/18 02:37:25;;;;;;;0.00;0.00;;;;;;;15.89;49.62;100049.63;4351586;32;33357;-83
2023/02/18 02:40:02;;;;;;;0.05;0.05;;;;;;;16.02;48.95;100045.25;4338837;33;33640;-83
2023/02/18 02:42:58;;;;;;;0.00;0.00;;;;;;;15.91;49.10;100037.09;4328831;33;34932;-83
2023/02/18 02:45:57;;;;;;;0.00;0.00;;;;;;;15.85;49.46;100027.66;4352362;32;33557;-83
2023/02/18 02:48:35;;;;;;;0.00;0.00;;;;;;;16.05;48.92;100026.44;4336221;33;34525;-86
2023/02/18 02:51:16;;;;;;;0.00;0.00;;;;;;;15.92;49.20;100037.94;4338925;33;33333;-85
2023/02/18 02:53:43;;;;;;;0.10;0.10;;;;;;;15.95;48.98;100027.97;4329151;33;33213;-84
2023/02/18 02:56:25;;;;;;;0.00;0.00;;;;;;;15.79;49.40;100032.50;4337634;32;32561;-85
2023/02/18 02:58:59;;;;;;;0.00;0.00;;;;;;;15.55;49.87;100032.16;4331206;33;33389;-85
2023/02/18 03:01:54;;;;;;;0.00;0.00;;;;;;;15.86;49.24;100044.50;4326940;33;33131;-85
2023/02/18 03:04:38;;;;;;;0.00;0.00;;;;;;;15.79;49.49;100043.16;4335111;33;33194;-86
2023/02/18 03:07:27;;;;;;;0.13;0.13;;;;;;;15.74;49.59;100046.09;4351418;32;33218;-86
2023/02/18 03:10:24;;;;;;;0.00;0.00;;;;;;;16.19;48.75;100036.22;4338763;32;33796;-85
2023/02/18 03:13:10;;;;;;;0.00;0.00;;;;;;;16.10;48.83;100048.31;4350024;32;33463;-85
2023/02/18 03:15:44;;;;;;;0.98;0.20;;;;;;;16.24;48.53;100051.91;4341665;33;33051;-85
2023/02/18 03:18:20;;;;;;;0.00;0.00;;;;;;;15.99;49.13;100050.75;4337858;32;33320;-85
2023/02/18 03:21:08;;;;;;;0.00;0.00;;;;;;;16.15;48.88;100076.47;4335071;33;32884;-85
2023/02/18 03:24:00;;;;;;;0.05;0.05;;;;;;;15.89;49.75;100065.59;4338289;33;33193;-85
2023/02/18 03:26:29;;;;;;;0.00;0.00;;;;;;;16.26;48.99;100079.31;4337307;33;34165;-85
2023/02/18 03:29:01;;;;;;;0.15;0.15;;;;;;;16.20;49.18;100072.56;4340124;33;32711;-88
2023/02/18 03:31:32;;;;;;;0.30;0.25;;;;;;;15.65;50.74;100070.63;4338865;32;33809;-86
2023/02/18 03:34:04;;;;;;;0.08;0.08;;;;;;;16.17;49.65;100059.44;4343700;32;33028;-85
2023/02/18 03:36:38;;;;;;;0.00;0.00;;;;;;;15.89;50.15;100068.25;4345027;32;34512;-85
2023/02/18 03:39:09;;;;;;;0.30;0.30;;;;;;;16.15;49.61;100071.16;4340471;32;33701;-85
2023/02/18 03:41:37;;;;;;;0.00;0.00;;;;;;;16.21;49.33;100076.09;4352211;32;33737;-85
2023/02/18 03:44:06;;;;;;;0.00;0.00;;;;;;;16.07;49.83;100075.13;4338018;32;32619;-85
2023/02/18 03:46:36;;;;;;;0.00;0.00;;;;;;;16.36;49.11;100077.78;4331828;33;33080;-85
2023/02/18 03:49:04;;;;;;;3.90;0.77;;;;;;;15.78;50.84;100076.06;4337563;33;32137;-85
2023/02/18 03:51:32;;;;;;;0.00;0.00;;;;;;;16.02;50.03;100076.38;4339574;33;33067;-84
2023/02/18 03:54:00;;;;;;;0.15;0.15;;;;;;;15.90;50.24;100069.97;4337967;33;33307;-84
2023/02/18 03:56:28;;;;;;;0.00;0.00;;;;;;;15.99;50.33;100071.22;4340031;33;34689;-84
2023/02/18 03:58:55;;;;;;;0.15;0.15;;;;;;;16.07;49.96;100069.78;4324171;33;32776;-84
2023/02/18 04:01:23;;;;;;;0.00;0.00;;;;;;;16.19;49.50;100085.97;4338552;33;33302;-84
2023/02/18 04:03:54;;;;;;;2.15;0.32;;;;;;;16.04;49.98;100074.44;4332219;33;34697;-84
2023/02/18 04:06:22;;;;;;;0.00;0.00;;;;;;;15.62;50.96;100074.31;4319582;33;34182;-83
2023/02/18 04:08:50;;;;;;;0.00;0.00;;;;;;;15.68;51.04;100075.78;4326646;33;33878;-85
2023/02/18 04:14:24;;;;;;;0.15;0.15;;;;;;;15.52;51.34;100090.88;4323187;33;34267;-85
2023/02/18 04:16:52;;;;;;;0.00;0.00;;;;;;;15.79;50.72;100099.06;4336024;33;34011;-86
2023/02/18 04:19:20;;;;;;;0.13;0.13;;;;;;;15.59;50.93;100101.09;4343527;33;33763;-87
2023/02/18 04:21:48;;;;;;;0.15;0.15;;;;;;;15.50;51.15;100100.78;4326037;33;33712;-86
2023/02/18 04:24:18;;;;;;;0.00;0.00;;;;;;;15.43;51.35;100100.31;4327128;33;33888;-88
2023/02/18 04:26:48;;;;;;;0.10;0.10;;;;;;;15.71;50.51;100098.66;4326224;33;34144;-88
2023/02/18 04:29:19;;;;;;;0.10;0.10;;;;;;;15.61;50.79;100107.16;4337707;33;33124;-87
2023/02/18 04:31:51;;;;;;;1.25;0.20;;;;;;;15.43;51.26;100100.31;4325477;33;32788;-87
2023/02/18 04:34:27;;;;;;;0.30;0.30;;;;;;;15.24;51.79;100099.62;4342827;33;33814;-87
2023/02/18 04:36:57;;;;;;;0.00;0.00;;;;;;;15.33;51.59;100094.66;4331614;33;33089;-86
2023/02/18 04:39:29;;;;;;;0.13;0.13;;;;;;;15.23;51.61;100092.59;4337712;33;33998;-87
2023/02/18 04:42:07;;;;;;;0.10;0.10;;;;;;;15.65;50.75;100104.38;4342638;33;33036;-86
2023/02/18 04:44:39;;;;;;;0.20;0.20;;;;;;;15.45;51.20;100109.03;4324634;33;33035;-86
2023/02/18 04:47:18;;;;;;;0.40;0.40;;;;;;;15.18;52.14;100126.59;4338876;32;33514;-86
2023/02/18 04:49:51;;;;;;;0.55;0.17;;;;;;;15.10;52.26;100119.09;4324945;33;33430;-86
2023/02/18 04:52:40;;;;;;;2.10;0.93;;;;;;;15.23;51.91;100108.56;4339849;32;34489;-86
2023/02/18 04:55:08;;;;;;;0.15;0.15;;;;;;;15.47;51.49;100107.12;4340353;32;34570;-86
2023/02/18 04:57:41;;;;;;;1.17;0.85;;;;;;;15.51;51.24;100116.66;4336447;33;34251;-87
2023/02/18 05:00:27;;;;;;;0.10;0.10;;;;;;;15.39;51.55;100116.53;4338380;32;33185;-87
2023/02/18 05:02:55;;;;;;;0.47;0.43;;;;;;;15.43;51.60;100116.28;4336774;33;33687;-87
2023/02/18 05:05:23;;;;;;;0.70;0.60;;;;;;;15.50;51.34;100111.44;4324789;33;33543;-87
2023/02/18 05:07:50;;;;;;;0.10;0.10;;;;;;;15.30;51.74;100112.59;4344175;33;34095;-87
2023/02/18 05:10:18;;;;;;;0.00;0.00;;;;;;;15.14;52.24;100128.56;4324996;33;33318;-88
2023/02/18 05:12:46;;;;;;;0.25;0.25;;;;;;;15.03;52.61;100131.84;4336253;33;32717;-86
2023/02/18 05:15:14;;;;;;;0.30;0.30;;;;;;;15.13;52.51;100126.00;4343291;33;33072;-86
2023/02/18 05:17:46;;;;;;;0.00;0.00;;;;;;;14.73;53.54;100137.09;4337946;33;33763;-86
2023/02/18 05:20:15;;;;;;;0.93;0.30;;;;;;;15.23;52.31;100144.00;4337528;33;33693;-87
2023/02/18 05:22:43;;;;;;;0.20;0.10;;;;;;;15.06;52.71;100147.66;4338558;32;33994;-85
2023/02/18 05:25:11;;;;;;;0.25;0.25;;;;;;;15.09;52.67;100150.09;4338238;33;34961;-85
2023/02/18 05:27:39;;;;;;;0.32;0.32;;;;;;;15.00;52.96;100152.44;4338828;33;33563;-86
2023/02/18 05:30:08;;;;;;;0.40;0.35;;;;;;;14.99;52.96;100153.38;4338145;33;32994;-86
2023/02/18 05:32:36;;;;;;;0.30;0.30;;;;;;;15.09;52.84;100158.09;4334751;33;33120;-86
2023/02/18 05:35:04;;;;;;;0.55;0.55;;;;;;;15.25;52.59;100174.06;4335649;33;32963;-86
2023/02/18 05:37:32;;;;;;;0.32;0.30;;;;;;;15.59;51.93;100172.09;4323738;33;34030;-85
2023/02/18 05:40:00;;;;;;;0.70;0.10;;;;;;;15.40;52.44;100180.28;4343651;32;33697;-86
2023/02/18 05:42:45;;;;;;;0.10;0.10;;;;;;;15.50;52.20;100181.47;4343837;32;32704;-86
2023/02/18 05:45:13;;;;;;;0.62;0.35;;;;;;;15.03;53.74;100182.38;4338360;33;34006;-86
2023/02/18 05:47:41;;;;;;;0.03;0.03;;;;;;;15.21;53.26;100190.28;4336067;33;34283;-85
2023/02/18 05:50:11;;;;;;;0.00;0.00;;;;;;;15.43;52.73;100196.09;4344024;33;33994;-85
2023/02/18 05:52:40;;;;;;;0.13;0.13;;;;;;;15.36;52.88;100192.06;4331607;33;32616;-86
2023/02/18 05:55:08;;;;;;;0.20;0.20;;;;;;;15.19;53.79;100200.13;4322222;33;33991;-86
2023/02/18 05:57:36;;;;;;;0.20;0.20;;;;;;;15.16;55.40;100203.84;4337710;33;33976;-86
2023/02/18 06:00:06;;;;;;;0.10;0.10;;;;;;;15.17;55.75;100210.00;4337526;32;32550;-86
2023/02/18 06:02:35;;;;;;;0.00;0.00;;;;;;;15.03;56.42;100230.25;4340985;33;32605;-86
2023/02/18 06:05:04;;;;;;;0.00;0.00;;;;;;;14.71;56.98;100232.00;4339485;33;33560;-85
2023/02/18 06:07:31;;;;;;;3.47;0.17;;;;;;;14.79;58.63;100221.81;4325445;33;33208;-85
2023/02/18 06:09:59;;;;;;;0.00;0.00;;;;;;;14.62;59.99;100216.53;4321659;33;32917;-85
2023/02/18 06:12:27;;;;;;;0.00;0.00;;;;;;;14.42;60.44;100232.66;4341662;33;32907;-85
2023/02/18 06:14:54;;;;;;;0.05;0.05;;;;;;;14.44;59.95;100221.03;4328759;33;33965;-85
2023/02/18 06:17:22;;;;;;;0.00;0.00;;;;;;;14.49;60.48;100219.03;4347203;32;34023;-85
2023/02/18 06:19:50;;;;;;;0.00;0.00;;;;;;;14.67;60.06;100227.81;4339927;33;33688;-85
2023/02/18 06:22:18;;;;;;;0.00;0.00;;;;;;;14.18;61.17;100235.66;4331006;33;32891;-85
2023/02/18 06:24:46;;;;;;;0.35;0.25;;;;;;;14.19;60.80;100231.19;4336318;33;33395;-85
2023/02/18 06:27:14;;;;;;;0.90;0.37;;;;;;;14.23;59.24;100246.03;4338672;33;34325;-85
2023/02/18 06:29:49;;;;;;;0.00;0.00;;;;;;;14.21;58.64;100239.97;4341879;33;34400;-85
2023/02/18 06:32:17;;;;;;;0.10;0.00;;;;;;;14.19;58.98;100253.31;4326824;33;34044;-85
2023/02/18 06:34:54;;;;;;;0.00;0.00;;;;;;;14.00;59.32;100264.00;4321570;33;33014;-85
2023/02/18 06:37:22;;;;;;;0.10;0.10;;;;;;;14.03;59.11;100273.63;4326356;33;33907;-85
2023/02/18 06:39:49;;;;;;;0.00;0.00;;;;;;;14.19;58.77;100263.06;4336491;33;32825;-85
2023/02/18 06:42:17;;;;;;;0.00;0.00;;;;;;;14.32;58.36;100250.87;4330336;33;32761;-85
2023/02/18 06:44:46;;;;;;;0.10;0.10;;;;;;;14.32;58.52;100253.53;4338246;33;34011;-85
2023/02/18 06:47:13;;;;;;;0.57;0.30;;;;;;;14.49;58.46;100250.06;4341262;33;34601;-85
2023/02/18 06:49:42;;;;;;;0.22;0.15;;;;;;;14.80;57.49;100259.88;4337619;33;35485;-85
2023/02/18 06:52:10;;;;;;;0.00;0.00;;;;;;;14.40;58.62;100255.81;4346582;33;33921;-85
2023/02/18 06:54:38;;;;;;;0.03;0.03;;;;;;;14.75;57.84;100254.81;4334959;33;33651;-85
2023/02/18 06:57:06;;;;;;;0.00;0.00;;;;;;;14.72;57.91;100251.50;4338977;33;33646;-86
2023/02/18 06:59:34;;;;;;;0.17;0.17;;;;;;;14.65;58.08;100261.56;4337257;33;33365;-85
2023/02/18 07:02:02;;;;;;;0.80;0.35;;;;;;;14.79;57.69;100252.88;4321839;33;33057;-85
2023/02/18 07:04:29;;;;;;;0.05;0.05;;;;;;;14.89;57.43;100259.41;4336246;33;32628;-85
2023/02/18 07:06:57;;;;;;;0.00;0.00;;;;;;;14.85;57.35;100260.50;4337065;33;34444;-85
2023/02/18 07:09:28;;;;;;;0.68;0.50;;;;;;;14.91;57.58;100261.97;4336289;33;33865;-85
2023/02/18 07:11:55;;;;;;;1.45;0.52;;;;;;;14.85;57.95;100263.16;4335930;33;33590;-85
2023/02/18 07:14:23;;;;;;;0.00;0.00;;;;;;;14.90;58.14;100249.63;4329845;33;33224;-84
2023/02/18 07:16:57;;;;;;;0.20;0.20;;;;;;;15.10;57.63;100252.91;4330849;33;32924;-85
2023/02/18 07:19:31;;;;;;;0.08;0.08;;;;;;;14.54;58.62;100253.31;4339751;33;34360;-85
2023/02/18 07:22:01;;;;;;;0.00;0.00;;;;;;;14.67;58.40;100258.81;4323532;33;33384;-84
2023/02/18 07:24:29;;;;;;;0.00;0.00;;;;;;;14.59;58.67;100254.78;4332091;33;34717;-85
2023/02/18 07:26:56;;;;;;;0.35;0.35;;;;;;;14.85;58.12;100257.84;4330723;33;33934;-85
2023/02/18 07:29:24;;;;;;;0.00;0.00;;;;;;;14.74;58.10;100257.56;4338778;33;33546;-85
2023/02/18 07:31:53;;;;;;;0.00;0.00;;;;;;;14.22;59.71;100262.94;4327865;33;33118;-86
2023/02/18 07:34:20;;;;;;;0.00;0.00;;;;;;;14.34;59.62;100262.31;4338192;33;34960;-85
2023/02/18 07:36:48;;;;;;;0.00;0.00;;;;;;;14.91;57.94;100261.97;4324631;33;34891;-86
2023/02/18 07:39:19;;;;;;;0.00;0.00;;;;;;;14.95;57.79;100261.72;4337427;33;32432;-85
2023/02/18 07:41:49;;;;;;;0.20;0.20;;;;;;;14.75;58.34;100256.63;4337088;33;33666;-85
2023/02/18 07:44:17;;;;;;;1.20;0.65;;;;;;;15.07;57.59;100246.91;4339014;33;34102;-85
2023/02/18 07:46:44;;;;;;;1.05;0.95;;;;;;;15.31;56.88;100263.31;4338184;33;33615;-85
2023/02/18 07:49:14;;;;;;;0.65;0.20;;;;;;;15.17;57.58;100263.22;4337956;33;33003;-87
2023/02/18 07:51:54;;;;;;;0.20;0.10;;;;;;;15.17;57.36;100252.56;4325825;33;33271;-88
2023/02/18 07:54:25;;;;;;;0.05;0.05;;;;;;;15.29;56.88;100251.91;4338270;33;34222;-87
2023/02/18 07:56:56;;;;;;;0.30;0.30;;;;;;;15.31;56.96;100256.19;4336878;33;33248;-85
2023/02/18 07:59:23;;;;;;;0.00;0.00;;;;;;;15.45;56.62;100257.22;4336511;33;33765;-85
2023/02/18 08:01:51;;;;;;;0.00;0.00;;;;;;;15.54;56.28;100256.69;4325613;33;34172;-86
2023/02/18 08:04:19;;;;;;;0.10;0.10;;;;;;;15.60;55.95;100259.84;4334003;33;34578;-86
2023/02/18 08:06:48;;;;;;;0.35;0.35;;;;;;;15.54;56.55;100273.50;4314590;33;33135;-88
2023/02/18 08:09:17;;;;;;;0.75;0.55;;;;;;;15.62;55.88;100260.63;4338313;33;33364;-86
2023/02/18 08:11:45;;;;;;;1.02;0.40;;;;;;;15.70;55.49;100254.03;4337311;33;32099;-86
2023/02/18 08:14:12;;;;;;;0.22;0.22;;;;;;;15.37;56.80;100262.94;4331537;33;34489;-85
2023/02/18 08:16:40;;;;;;;0.10;0.10;;;;;;;15.55;55.96;100255.75;4337741;33;33180;-86
2023/02/18 08:19:08;;;;;;;0.00;0.00;;;;;;;15.42;56.09;100252.03;4332840;33;33492;-85
2023/02/18 08:21:35;;;;;;;0.10;0.10;;;;;;;15.48;55.29;100249.06;4324945;33;33812;-85
2023/02/18 08:24:03;;;;;;;0.00;0.00;;;;;;;15.38;55.25;100251.34;4324351;33;34057;-86
2023/02/18 08:26:31;;;;;;;0.30;0.10;;;;;;;15.67;54.20;100247.09;4343982;33;33711;-87
2023/02/18 08:28:58;;;;;;;0.50;0.17;;;;;;;15.31;54.58;100260.66;4336172;32;33468;-86
2023/02/18 08:31:28;;;;;;;0.00;0.00;;;;;;;15.72;53.59;100253.00;4336013;33;33027;-86
2023/02/18 08:33:57;;;;;;;0.00;0.00;;;;;;;15.38;54.48;100256.69;4336760;33;35286;-85
2023/02/18 08:36:26;;;;;;;0.00;0.00;;;;;;;15.81;53.37;100260.47;4330989;33;33894;-86
2023/02/18 08:38:54;;;;;;;0.05;0.05;;;;;;;15.90;53.45;100247.53;4334718;33;32949;-86
2023/02/18 08:41:21;;;;;;;0.17;0.17;;;;;;;16.12;52.69;100248.00;4341057;33;31975;-85
2023/02/18 08:43:49;;;;;;;0.70;0.20;;;;;;;16.05;53.06;100252.00;4343743;32;32415;-86
2023/02/18 08:46:17;;;;;;;0.00;0.00;;;;;;;15.99;53.42;100257.66;4335889;33;35035;-86
2023/02/18 08:49:02;;;;;;;0.10;0.10;;;;;;;16.23;52.52;100250.00;4336644;33;34015;-86
2023/02/18 08:51:30;;;;;;;0.00;0.00;;;;;;;16.32;52.17;100244.13;4331684;33;32303;-86
2023/02/18 08:53:58;;;;;;;2.30;0.40;;;;;;;16.36;52.50;100230.53;4319241;33;32568;-86
2023/02/18 08:56:26;;;;;;;0.80;0.43;;;;;;;16.48;52.44;100231.59;4337009;33;32643;-86
2023/02/18 08:58:53;;;;;;;0.00;0.00;;;;;;;16.32;52.56;100230.81;4337606;33;34048;-86
2023/02/18 09:01:21;;;;;;;0.00;0.00;;;;;;;16.41;52.76;100238.25;4334856;33;34014;-86
2023/02/18 09:03:49;;;;;;;0.30;0.30;;;;;;;16.06;53.51;100243.91;4339742;33;34028;-86
2023/02/18 09:06:17;;;;;;;0.20;0.20;;;;;;;16.07;53.66;100237.63;4338019;33;33001;-86
2023/02/18 09:08:44;;;;;;;0.47;0.47;;;;;;;16.44;52.69;100238.06;4331638;33;33767;-85
2023/02/18 09:11:12;;;;;;;0.00;0.00;;;;;;;16.74;51.33;100240.69;4338259;33;32706;-86
2023/02/18 09:13:40;;;;;;;0.15;0.15;;;;;;;16.47;51.72;100237.88;4338250;33;34366;-86
2023/02/18 09:16:14;;;;;;;2.17;0.80;;;;;;;16.29;52.46;100241.69;4338248;33;33712;-88
2023/02/18 09:18:42;;;;;;;0.00;0.00;;;;;;;16.60;51.51;100230.84;4336016;33;33950;-84
2023/02/18 09:21:11;;;;;;;0.17;0.17;;;;;;;16.45;51.60;100223.78;4336006;32;32270;-86
2023/02/18 09:23:39;;;;;;;0.52;0.52;;;;;;;16.37;51.61;100236.72;4334752;33;33853;-85
2023/02/18 09:26:10;;;;;;;4.28;0.90;;;;;;;16.38;50.99;100227.78;4337994;33;35083;-86
2023/02/18 09:28:39;;;;;;;0.00;0.00;;;;;;;16.50;51.07;100227.03;4335036;33;34875;-86
2023/02/18 09:31:12;;;;;;;0.00;0.00;;;;;;;16.46;50.89;100221.97;4337451;33;33800;-86
2023/02/18 09:33:43;;;;;;;0.00;0.00;;;;;;;16.79;50.26;100224.41;4322714;33;34191;-86
2023/02/18 09:36:14;;;;;;;0.00;0.00;;;;;;;16.58;50.88;100227.41;4335961;33;34577;-87
2023/02/18 09:38:43;;;;;;;2.20;1.55;;;;;;;16.57;51.24;100222.19;4338896;33;34231;-86
2023/02/18 09:41:38;;;;;;;0.01;0.01;;;;;;;16.82;50.73;100216.22;4339504;33;33822;-86
2023/02/18 09:44:33;;;;;;;0.00;0.00;;;;;;;17.25;49.85;100216.13;4320675;33;32932;-87
2023/02/18 09:47:35;;;;;;;0.03;0.03;;;;;;;16.71;50.96;100234.63;4330870;33;34206;-87
2023/02/18 09:50:25;;;;;;;0.30;0.20;;;;;;;16.99;50.95;100223.97;4343013;32;33320;-86
2023/02/18 09:52:55;;;;;;;0.30;0.08;;;;;;;16.59;51.60;100226.47;4337350;33;33362;-87
2023/02/18 09:55:29;;;;;;;0.10;0.10;;;;;;;16.77;51.64;100220.97;4335969;33;33471;-85
2023/02/18 09:58:03;;;;;;;0.10;0.10;;;;;;;17.33;50.27;100217.34;4342075;32;33481;-86
2023/02/18 10:00:42;;;;;;;0.20;0.20;;;;;;;16.97;51.23;100217.91;4341565;33;33435;-86
2023/02/18 10:03:15;;;;;;;0.08;0.08;;;;;;;16.97;51.04;100209.03;4313354;33;32948;-86
2023/02/18 10:06:06;;;;;;;0.10;0.10;;;;;;;17.29;50.86;100205.16;4329687;33;32665;-86
2023/02/18 10:08:49;;;;;;;0.85;0.10;;;;;;;17.27;48.90;100207.06;4335444;33;35074;-86
2023/02/18 10:11:37;;;;;;;0.03;0.03;;;;;;;17.23;49.59;100204.69;4323947;33;36632;-85
2023/02/18 10:14:10;;;;;;;0.20;0.20;;;;;;;17.50;49.40;100200.22;4317978;33;32642;-86
2023/02/18 10:16:40;;;;;;;0.03;0.03;;;;;;;17.67;48.83;100205.31;4325604;33;34931;-85
2023/02/18 10:19:28;;;;;;;0.00;0.00;;;;;;;18.07;47.69;100191.94;4331152;33;33528;-85
2023/02/18 10:21:58;;;;;;;0.00;0.00;;;;;;;17.90;48.05;100194.94;4319511;33;33696;-86
2023/02/18 10:24:30;;;;;;;0.10;0.10;;;;;;;17.74;49.22;100207.59;4322219;33;32125;-85
2023/02/18 10:26:59;;;;;;;0.00;0.00;;;;;;;17.90;48.31;100200.28;4335476;33;33737;-85
2023/02/18 10:29:31;;;;;;;0.20;0.20;;;;;;;18.08;48.19;100199.00;4329498;33;34801;-85
2023/02/18 10:32:22;;;;;;;0.00;0.00;;;;;;;17.77;47.86;100210.06;4324290;33;32758;-85
2023/02/18 10:35:00;;;;;;;0.00;0.00;;;;;;;17.81;48.15;100196.41;4319640;33;34020;-85
2023/02/18 10:38:06;;;;;;;0.00;0.00;;;;;;;17.61;48.96;100200.38;4322978;33;32884;-85
2023/02/18 10:41:02;;;;;;;0.03;0.00;;;;;;;17.63;49.33;100195.78;4334123;33;33288;-85
2023/02/18 10:44:01;;;;;;;0.52;0.35;;;;;;;17.71;49.17;100194.41;4312509;33;34876;-85
2023/02/18 10:46:43;;;;;;;0.08;0.08;;;;;;;17.75;49.52;100187.94;4325603;33;32393;-86
2023/02/18 10:49:21;;;;;;;1.75;0.75;;;;;;;17.41;50.31;100179.47;4336420;33;33560;-85
2023/02/18 10:51:52;;;;;;;0.00;0.00;;;;;;;17.95;49.76;100176.78;4313491;33;36739;-85
2023/02/18 10:54:25;;;;;;;0.00;0.00;;;;;;;18.01;49.10;100164.81;4321645;33;33679;-85
2023/02/18 10:57:03;;;;;;;1.75;0.80;;;;;;;17.99;49.26;100158.69;4318093;33;33754;-86
2023/02/18 10:59:32;;;;;;;0.08;0.08;;;;;;;17.90;49.85;100161.06;4323344;33;33646;-85
2023/02/18 11:02:05;;;;;;;0.03;0.03;;;;;;;17.97;48.78;100158.81;4317413;33;33589;-86
2023/02/18 11:04:34;;;;;;;;;;;;;;;18.24;48.15;100157.88;4330512;33;33412;-86
2023/02/18 11:07:05;;;;;;;0.00;0.00;;;;;;;17.98;48.48;100155.16;4324702;33;33527;-85
2023/02/18 11:09:40;;;;;;;0.08;0.08;;;;;;;18.25;48.27;100140.88;4330664;33;34458;-86
2023/02/18 11:12:39;;;;;;;0.20;0.20;;;;;;;18.01;48.59;100143.44;4330293;33;34259;-86
2023/02/18 11:15:15;;;;;;;0.35;0.22;;;;;;;17.92;48.98;100151.09;4310283;33;34111;-85
2023/02/18 11:17:47;;;;;;;8.10;0.22;;;;;;;17.68;49.35;100136.72;4323733;33;32775;-86
2023/02/18 11:20:28;;;;;;;0.00;0.00;;;;;;;17.75;49.54;100131.84;4329176;33;33946;-86
2023/02/18 11:23:20;;;;;;;0.10;0.10;;;;;;;17.82;49.77;100133.16;4323985;33;32910;-85
2023/02/18 11:26:03;;;;;;;0.17;0.17;;;;;;;18.06;49.06;100135.94;4323132;33;32871;-85
2023/02/18 11:28:41;;;;;;;0.15;0.15;;;;;;;18.35;48.32;100126.75;4330152;33;32879;-85
2023/02/18 11:31:34;;;;;;;0.98;0.93;;;;;;;18.62;47.61;100123.06;4329652;33;33315;-86
2023/02/18 11:34:03;;;;;;;0.65;0.55;;;;;;;18.43;47.07;100131.56;4336176;33;33738;-85
2023/02/18 11:36:37;;;;;;;0.10;0.10;;;;;;;18.42;47.39;100103.12;4329811;33;34261;-86
2023/02/18 11:39:15;;;;;;;0.10;0.08;;;;;;;18.19;47.48;100101.22;4328970;33;32584;-85
2023/02/18 11:41:54;;;;;;;0.20;0.20;;;;;;;17.91;48.09;100100.47;4317197;33;34158;-86
2023/02/18 11:44:42;;;;;;;0.10;0.10;;;;;;;18.11;47.73;100107.94;4319985;33;34326;-86
2023/02/18 11:47:13;;;;;;;0.00;0.00;;;;;;;18.40;46.84;100097.00;4329618;33;33330;-85
2023/02/18 11:49:45;;;;;;;0.25;0.25;;;;;;;18.51;46.64;100088.22;4323323;33;33575;-84
2023/02/18 11:52:21;;;;;;;0.00;0.00;;;;;;;18.77;45.95;100086.38;4329359;33;35823;-84
2023/02/18 11:55:05;;;;;;;0.10;0.10;;;;;;;18.49;46.19;100085.66;4322324;33;34838;-84
2023/02/18 11:57:37;;;;;;;10.32;0.32;;;;;;;18.26;47.22;100073.06;4329231;33;34150;-85